sensor_id;sensor_type;location;lat;lon;timestamp;P1;durP1;ratioP1;P2;durP2;ratioP2
14139;SDS011;7150;53.514;9.988;2023-08-06T00:00:51;5.40;;;3.00;;
14139;SDS011;7150;53.514;9.988;2023-08-06T00:03:17;7.40;;;3.30;;
14139;SDS011;7150;53.514;9.988;2023-08-06T00:05:42;4.03;;;2.77;;
14139;SDS011;7150;53.514;9.988;2023-08-06T00:08:08;6.80;;;3.63;;
14139;SDS011;7150;53.514;9.988;2023-08-06T00:10:34;5.43;;;3.03;;
14139;SDS011;7150;53.514;9.988;2023-08-06T00:12:59;5.33;;;3.07;;
14139;SDS011;7150;53.514;9.988;2023-08-06T00:15:24;5.40;;;3.40;;
14139;SDS011;7150;53.514;9.988;2023-08-06T00:17:50;8.10;;;3.23;;
14139;SDS011;7150;53.514;9.988;2023-08-06T00:20:15;5.83;;;3.57;;
14139;SDS011;7150;53.514;9.988;2023-08-06T00:22:41;5.77;;;3.60;;
14139;SDS011;7150;53.514;9.988;2023-08-06T00:25:07;6.63;;;3.77;;
14139;SDS011;7150;53.514;9.988;2023-08-06T00:27:32;7.67;;;4.47;;
14139;SDS011;7150;53.514;9.988;2023-08-06T00:29:58;6.93;;;4.40;;
14139;SDS011;7150;53.514;9.988;2023-08-06T00:32:24;6.13;;;3.87;;
14139;SDS011;7150;53.514;9.988;2023-08-06T00:34:49;6.13;;;3.73;;
14139;SDS011;7150;53.514;9.988;2023-08-06T00:37:16;5.70;;;4.00;;
14139;SDS011;7150;53.514;9.988;2023-08-06T00:39:41;5.97;;;4.33;;
14139;SDS011;7150;53.514;9.988;2023-08-06T00:42:08;7.10;;;4.30;;
14139;SDS011;7150;53.514;9.988;2023-08-06T00:44:33;5.97;;;3.50;;
14139;SDS011;7150;53.514;9.988;2023-08-06T00:46:59;7.60;;;3.93;;
14139;SDS011;7150;53.514;9.988;2023-08-06T00:49:25;7.40;;;4.20;;
14139;SDS011;7150;53.514;9.988;2023-08-06T00:51:50;6.10;;;4.50;;
14139;SDS011;7150;53.514;9.988;2023-08-06T00:54:16;6.60;;;3.90;;
14139;SDS011;7150;53.514;9.988;2023-08-06T00:56:42;7.10;;;4.40;;
14139;SDS011;7150;53.514;9.988;2023-08-06T00:59:08;5.80;;;3.60;;
14139;SDS011;7150;53.514;9.988;2023-08-06T01:01:35;5.80;;;3.60;;
14139;SDS011;7150;53.514;9.988;2023-08-06T01:04:00;4.87;;;3.17;;
14139;SDS011;7150;53.514;9.988;2023-08-06T01:06:31;4.47;;;3.40;;
14139;SDS011;7150;53.514;9.988;2023-08-06T01:12:21;4.83;;;3.50;;
14139;SDS011;7150;53.514;9.988;2023-08-06T01:15:05;4.83;;;3.60;;
14139;SDS011;7150;53.514;9.988;2023-08-06T01:17:41;3.60;;;3.30;;
14139;SDS011;7150;53.514;9.988;2023-08-06T01:20:09;4.80;;;3.23;;
14139;SDS011;7150;53.514;9.988;2023-08-06T01:22:34;6.67;;;3.20;;
14139;SDS011;7150;53.514;9.988;2023-08-06T01:25:00;3.53;;;3.10;;
14139;SDS011;7150;53.514;9.988;2023-08-06T01:27:30;3.77;;;3.17;;
14139;SDS011;7150;53.514;9.988;2023-08-06T01:30:07;3.33;;;3.03;;
14139;SDS011;7150;53.514;9.988;2023-08-06T01:32:49;3.93;;;3.10;;
14139;SDS011;7150;53.514;9.988;2023-08-06T01:35:18;5.63;;;3.30;;
14139;SDS011;7150;53.514;9.988;2023-08-06T01:37:44;6.47;;;3.60;;
14139;SDS011;7150;53.514;9.988;2023-08-06T01:40:11;4.43;;;3.33;;
14139;SDS011;7150;53.514;9.988;2023-08-06T01:42:38;3.70;;;3.10;;
14139;SDS011;7150;53.514;9.988;2023-08-06T01:45:04;4.83;;;3.27;;
14139;SDS011;7150;53.514;9.988;2023-08-06T01:47:33;3.97;;;3.50;;
14139;SDS011;7150;53.514;9.988;2023-08-06T01:49:59;6.17;;;3.70;;
14139;SDS011;7150;53.514;9.988;2023-08-06T01:52:25;6.17;;;3.50;;
14139;SDS011;7150;53.514;9.988;2023-08-06T01:54:51;5.63;;;3.33;;
14139;SDS011;7150;53.514;9.988;2023-08-06T01:57:16;5.37;;;3.57;;
14139;SDS011;7150;53.514;9.988;2023-08-06T01:59:42;6.07;;;3.77;;
14139;SDS011;7150;53.514;9.988;2023-08-06T02:02:07;5.43;;;3.67;;
14139;SDS011;7150;53.514;9.988;2023-08-06T02:04:33;5.30;;;3.70;;
14139;SDS011;7150;53.514;9.988;2023-08-06T02:06:59;5.07;;;3.70;;
14139;SDS011;7150;53.514;9.988;2023-08-06T02:09:24;8.00;;;3.90;;
14139;SDS011;7150;53.514;9.988;2023-08-06T02:11:49;5.97;;;4.50;;
14139;SDS011;7150;53.514;9.988;2023-08-06T02:14:15;6.87;;;4.27;;
14139;SDS011;7150;53.514;9.988;2023-08-06T02:16:40;5.67;;;3.77;;
14139;SDS011;7150;53.514;9.988;2023-08-06T02:19:06;7.20;;;3.80;;
14139;SDS011;7150;53.514;9.988;2023-08-06T02:21:31;5.87;;;4.17;;
14139;SDS011;7150;53.514;9.988;2023-08-06T02:23:57;4.43;;;3.77;;
14139;SDS011;7150;53.514;9.988;2023-08-06T02:26:22;5.73;;;3.50;;
14139;SDS011;7150;53.514;9.988;2023-08-06T02:28:48;5.30;;;3.77;;
14139;SDS011;7150;53.514;9.988;2023-08-06T02:31:13;5.33;;;3.70;;
14139;SDS011;7150;53.514;9.988;2023-08-06T02:33:39;6.23;;;3.73;;
14139;SDS011;7150;53.514;9.988;2023-08-06T02:36:04;4.43;;;3.73;;
14139;SDS011;7150;53.514;9.988;2023-08-06T02:38:31;4.97;;;4.13;;
14139;SDS011;7150;53.514;9.988;2023-08-06T02:40:57;8.20;;;4.07;;
14139;SDS011;7150;53.514;9.988;2023-08-06T02:43:23;5.13;;;4.10;;
14139;SDS011;7150;53.514;9.988;2023-08-06T02:45:48;5.33;;;4.63;;
14139;SDS011;7150;53.514;9.988;2023-08-06T02:48:14;6.90;;;4.67;;
14139;SDS011;7150;53.514;9.988;2023-08-06T02:50:40;6.63;;;5.13;;
14139;SDS011;7150;53.514;9.988;2023-08-06T02:53:06;6.27;;;4.30;;
14139;SDS011;7150;53.514;9.988;2023-08-06T02:55:33;5.63;;;4.80;;
14139;SDS011;7150;53.514;9.988;2023-08-06T02:57:59;5.63;;;4.17;;
14139;SDS011;7150;53.514;9.988;2023-08-06T03:00:25;5.87;;;5.07;;
14139;SDS011;7150;53.514;9.988;2023-08-06T03:02:51;6.43;;;5.10;;
14139;SDS011;7150;53.514;9.988;2023-08-06T03:05:16;7.57;;;4.93;;
14139;SDS011;7150;53.514;9.988;2023-08-06T03:07:42;6.83;;;5.03;;
14139;SDS011;7150;53.514;9.988;2023-08-06T03:10:07;7.53;;;4.63;;
14139;SDS011;7150;53.514;9.988;2023-08-06T03:12:33;6.57;;;4.77;;
14139;SDS011;7150;53.514;9.988;2023-08-06T03:14:59;8.70;;;5.27;;
14139;SDS011;7150;53.514;9.988;2023-08-06T03:17:24;5.17;;;4.20;;
14139;SDS011;7150;53.514;9.988;2023-08-06T03:19:49;6.23;;;5.40;;
14139;SDS011;7150;53.514;9.988;2023-08-06T03:22:15;6.50;;;5.10;;
14139;SDS011;7150;53.514;9.988;2023-08-06T03:24:40;6.70;;;4.97;;
14139;SDS011;7150;53.514;9.988;2023-08-06T03:27:06;5.70;;;4.80;;
14139;SDS011;7150;53.514;9.988;2023-08-06T03:29:31;5.80;;;5.00;;
14139;SDS011;7150;53.514;9.988;2023-08-06T03:31:57;6.77;;;4.90;;
14139;SDS011;7150;53.514;9.988;2023-08-06T03:34:22;5.53;;;4.23;;
14139;SDS011;7150;53.514;9.988;2023-08-06T03:36:48;6.57;;;4.60;;
14139;SDS011;7150;53.514;9.988;2023-08-06T03:39:13;6.13;;;4.43;;
14139;SDS011;7150;53.514;9.988;2023-08-06T03:41:39;7.87;;;4.43;;
14139;SDS011;7150;53.514;9.988;2023-08-06T03:44:05;6.07;;;4.47;;
14139;SDS011;7150;53.514;9.988;2023-08-06T03:46:30;7.47;;;5.33;;
14139;SDS011;7150;53.514;9.988;2023-08-06T03:48:59;5.90;;;4.10;;
14139;SDS011;7150;53.514;9.988;2023-08-06T03:51:25;6.67;;;4.70;;
14139;SDS011;7150;53.514;9.988;2023-08-06T03:53:51;6.70;;;4.30;;
14139;SDS011;7150;53.514;9.988;2023-08-06T03:56:16;7.30;;;4.20;;
14139;SDS011;7150;53.514;9.988;2023-08-06T03:58:42;5.47;;;4.33;;
14139;SDS011;7150;53.514;9.988;2023-08-06T04:01:07;8.23;;;4.20;;
14139;SDS011;7150;53.514;9.988;2023-08-06T04:03:33;7.67;;;4.60;;
14139;SDS011;7150;53.514;9.988;2023-08-06T04:05:59;8.10;;;4.30;;
14139;SDS011;7150;53.514;9.988;2023-08-06T04:08:25;8.73;;;4.80;;
14139;SDS011;7150;53.514;9.988;2023-08-06T04:10:52;5.70;;;4.37;;
14139;SDS011;7150;53.514;9.988;2023-08-06T04:13:17;9.67;;;4.70;;
14139;SDS011;7150;53.514;9.988;2023-08-06T04:15:43;8.43;;;4.70;;
14139;SDS011;7150;53.514;9.988;2023-08-06T04:18:09;9.80;;;4.50;;
14139;SDS011;7150;53.514;9.988;2023-08-06T04:20:35;6.50;;;4.60;;
14139;SDS011;7150;53.514;9.988;2023-08-06T04:23:08;9.60;;;4.60;;
14139;SDS011;7150;53.514;9.988;2023-08-06T04:25:33;6.57;;;4.37;;
14139;SDS011;7150;53.514;9.988;2023-08-06T04:27:59;7.93;;;4.37;;
14139;SDS011;7150;53.514;9.988;2023-08-06T04:30:24;7.90;;;4.10;;
14139;SDS011;7150;53.514;9.988;2023-08-06T04:32:50;5.53;;;4.43;;
14139;SDS011;7150;53.514;9.988;2023-08-06T04:35:16;8.73;;;4.93;;
14139;SDS011;7150;53.514;9.988;2023-08-06T04:37:41;6.07;;;4.40;;
14139;SDS011;7150;53.514;9.988;2023-08-06T04:40:07;8.13;;;4.20;;
14139;SDS011;7150;53.514;9.988;2023-08-06T04:42:33;9.33;;;4.67;;
14139;SDS011;7150;53.514;9.988;2023-08-06T04:44:58;7.60;;;4.50;;
14139;SDS011;7150;53.514;9.988;2023-08-06T04:47:25;5.27;;;4.10;;
14139;SDS011;7150;53.514;9.988;2023-08-06T04:49:51;8.33;;;4.53;;
14139;SDS011;7150;53.514;9.988;2023-08-06T04:52:16;6.70;;;4.50;;
14139;SDS011;7150;53.514;9.988;2023-08-06T04:54:43;6.27;;;4.17;;
14139;SDS011;7150;53.514;9.988;2023-08-06T04:57:08;7.87;;;4.00;;
14139;SDS011;7150;53.514;9.988;2023-08-06T04:59:34;8.57;;;4.00;;
14139;SDS011;7150;53.514;9.988;2023-08-06T05:02:00;7.50;;;4.07;;
14139;SDS011;7150;53.514;9.988;2023-08-06T05:04:25;6.73;;;4.23;;
14139;SDS011;7150;53.514;9.988;2023-08-06T05:06:51;8.87;;;4.37;;
14139;SDS011;7150;53.514;9.988;2023-08-06T05:09:17;8.80;;;4.70;;
14139;SDS011;7150;53.514;9.988;2023-08-06T05:11:42;5.67;;;4.30;;
14139;SDS011;7150;53.514;9.988;2023-08-06T05:14:08;9.03;;;4.73;;
14139;SDS011;7150;53.514;9.988;2023-08-06T05:16:33;7.37;;;4.33;;
14139;SDS011;7150;53.514;9.988;2023-08-06T05:18:59;11.77;;;4.53;;
14139;SDS011;7150;53.514;9.988;2023-08-06T05:21:24;10.67;;;4.23;;
14139;SDS011;7150;53.514;9.988;2023-08-06T05:23:50;8.83;;;4.40;;
14139;SDS011;7150;53.514;9.988;2023-08-06T05:26:15;6.83;;;4.27;;
14139;SDS011;7150;53.514;9.988;2023-08-06T05:28:43;10.27;;;4.40;;
14139;SDS011;7150;53.514;9.988;2023-08-06T05:31:09;7.50;;;4.67;;
14139;SDS011;7150;53.514;9.988;2023-08-06T05:33:35;11.27;;;4.73;;
14139;SDS011;7150;53.514;9.988;2023-08-06T05:36:00;7.20;;;4.50;;
14139;SDS011;7150;53.514;9.988;2023-08-06T05:38:26;8.60;;;5.00;;
14139;SDS011;7150;53.514;9.988;2023-08-06T05:40:51;6.83;;;4.37;;
14139;SDS011;7150;53.514;9.988;2023-08-06T05:43:17;8.57;;;5.10;;
14139;SDS011;7150;53.514;9.988;2023-08-06T05:45:45;6.07;;;4.30;;
14139;SDS011;7150;53.514;9.988;2023-08-06T05:48:11;5.00;;;3.80;;
14139;SDS011;7150;53.514;9.988;2023-08-06T05:50:37;6.43;;;4.47;;
14139;SDS011;7150;53.514;9.988;2023-08-06T05:53:02;8.30;;;4.47;;
14139;SDS011;7150;53.514;9.988;2023-08-06T05:55:28;7.70;;;4.80;;
14139;SDS011;7150;53.514;9.988;2023-08-06T05:57:54;7.07;;;4.40;;
14139;SDS011;7150;53.514;9.988;2023-08-06T06:00:20;6.47;;;4.70;;
14139;SDS011;7150;53.514;9.988;2023-08-06T06:02:46;6.43;;;4.50;;
14139;SDS011;7150;53.514;9.988;2023-08-06T06:05:12;8.37;;;5.43;;
14139;SDS011;7150;53.514;9.988;2023-08-06T06:07:37;6.90;;;4.33;;
14139;SDS011;7150;53.514;9.988;2023-08-06T06:10:03;8.67;;;4.70;;
14139;SDS011;7150;53.514;9.988;2023-08-06T06:12:29;9.23;;;5.07;;
14139;SDS011;7150;53.514;9.988;2023-08-06T06:14:54;7.97;;;5.00;;
14139;SDS011;7150;53.514;9.988;2023-08-06T06:17:19;8.63;;;4.57;;
14139;SDS011;7150;53.514;9.988;2023-08-06T06:19:45;8.53;;;4.73;;
14139;SDS011;7150;53.514;9.988;2023-08-06T06:22:11;7.33;;;5.00;;
14139;SDS011;7150;53.514;9.988;2023-08-06T06:24:37;9.40;;;5.50;;
14139;SDS011;7150;53.514;9.988;2023-08-06T06:27:03;8.80;;;4.73;;
14139;SDS011;7150;53.514;9.988;2023-08-06T06:29:28;7.70;;;5.10;;
14139;SDS011;7150;53.514;9.988;2023-08-06T06:31:54;7.13;;;4.90;;
14139;SDS011;7150;53.514;9.988;2023-08-06T06:34:19;9.13;;;5.13;;
14139;SDS011;7150;53.514;9.988;2023-08-06T06:36:45;8.90;;;5.80;;
14139;SDS011;7150;53.514;9.988;2023-08-06T06:39:11;8.33;;;5.23;;
14139;SDS011;7150;53.514;9.988;2023-08-06T06:41:37;10.73;;;5.23;;
14139;SDS011;7150;53.514;9.988;2023-08-06T06:44:02;5.93;;;4.40;;
14139;SDS011;7150;53.514;9.988;2023-08-06T06:46:28;7.07;;;4.67;;
14139;SDS011;7150;53.514;9.988;2023-08-06T06:48:53;7.33;;;4.97;;
14139;SDS011;7150;53.514;9.988;2023-08-06T06:51:19;10.10;;;5.20;;
14139;SDS011;7150;53.514;9.988;2023-08-06T06:53:44;8.73;;;5.13;;
14139;SDS011;7150;53.514;9.988;2023-08-06T06:56:10;12.37;;;5.30;;
14139;SDS011;7150;53.514;9.988;2023-08-06T06:58:35;12.40;;;5.70;;
14139;SDS011;7150;53.514;9.988;2023-08-06T07:01:01;8.30;;;4.70;;
14139;SDS011;7150;53.514;9.988;2023-08-06T07:03:26;8.67;;;4.90;;
14139;SDS011;7150;53.514;9.988;2023-08-06T07:05:52;8.97;;;4.67;;
14139;SDS011;7150;53.514;9.988;2023-08-06T07:08:23;7.70;;;4.70;;
14139;SDS011;7150;53.514;9.988;2023-08-06T07:10:49;9.60;;;4.93;;
14139;SDS011;7150;53.514;9.988;2023-08-06T07:13:14;10.83;;;4.73;;
14139;SDS011;7150;53.514;9.988;2023-08-06T07:15:41;9.67;;;5.70;;
14139;SDS011;7150;53.514;9.988;2023-08-06T07:18:07;15.80;;;5.93;;
14139;SDS011;7150;53.514;9.988;2023-08-06T07:20:32;8.77;;;4.87;;
14139;SDS011;7150;53.514;9.988;2023-08-06T07:22:59;18.63;;;5.13;;
14139;SDS011;7150;53.514;9.988;2023-08-06T07:25:25;8.17;;;5.00;;
14139;SDS011;7150;53.514;9.988;2023-08-06T07:27:51;10.63;;;5.83;;
14139;SDS011;7150;53.514;9.988;2023-08-06T07:30:16;8.87;;;5.67;;
14139;SDS011;7150;53.514;9.988;2023-08-06T07:32:42;10.63;;;6.37;;
14139;SDS011;7150;53.514;9.988;2023-08-06T07:35:08;7.40;;;5.43;;
14139;SDS011;7150;53.514;9.988;2023-08-06T07:37:37;12.40;;;6.50;;
14139;SDS011;7150;53.514;9.988;2023-08-06T07:40:03;13.60;;;5.93;;
14139;SDS011;7150;53.514;9.988;2023-08-06T07:42:29;10.27;;;6.20;;
14139;SDS011;7150;53.514;9.988;2023-08-06T07:44:55;9.80;;;6.17;;
14139;SDS011;7150;53.514;9.988;2023-08-06T07:47:21;13.70;;;6.33;;
14139;SDS011;7150;53.514;9.988;2023-08-06T07:49:47;9.97;;;6.23;;
14139;SDS011;7150;53.514;9.988;2023-08-06T07:52:13;12.90;;;5.53;;
14139;SDS011;7150;53.514;9.988;2023-08-06T07:54:39;8.57;;;5.90;;
14139;SDS011;7150;53.514;9.988;2023-08-06T07:57:04;11.13;;;6.63;;
14139;SDS011;7150;53.514;9.988;2023-08-06T07:59:30;8.80;;;5.97;;
14139;SDS011;7150;53.514;9.988;2023-08-06T08:01:55;13.47;;;6.70;;
14139;SDS011;7150;53.514;9.988;2023-08-06T08:04:21;12.70;;;6.27;;
14139;SDS011;7150;53.514;9.988;2023-08-06T08:06:47;10.40;;;6.73;;
14139;SDS011;7150;53.514;9.988;2023-08-06T08:09:12;15.77;;;7.20;;
14139;SDS011;7150;53.514;9.988;2023-08-06T08:11:39;12.07;;;7.13;;
14139;SDS011;7150;53.514;9.988;2023-08-06T08:14:05;10.27;;;6.40;;
14139;SDS011;7150;53.514;9.988;2023-08-06T08:16:31;11.00;;;7.37;;
14139;SDS011;7150;53.514;9.988;2023-08-06T08:18:56;9.57;;;6.50;;
14139;SDS011;7150;53.514;9.988;2023-08-06T08:21:22;13.93;;;7.17;;
14139;SDS011;7150;53.514;9.988;2023-08-06T08:23:49;14.87;;;7.43;;
14139;SDS011;7150;53.514;9.988;2023-08-06T08:26:14;11.50;;;7.90;;
14139;SDS011;7150;53.514;9.988;2023-08-06T08:28:40;9.33;;;6.87;;
14139;SDS011;7150;53.514;9.988;2023-08-06T08:31:08;9.57;;;6.40;;
14139;SDS011;7150;53.514;9.988;2023-08-06T08:33:34;11.83;;;7.60;;
14139;SDS011;7150;53.514;9.988;2023-08-06T08:35:59;10.77;;;7.07;;
14139;SDS011;7150;53.514;9.988;2023-08-06T08:38:25;10.57;;;7.27;;
14139;SDS011;7150;53.514;9.988;2023-08-06T08:40:51;10.07;;;6.47;;
14139;SDS011;7150;53.514;9.988;2023-08-06T08:43:19;8.87;;;7.03;;
14139;SDS011;7150;53.514;9.988;2023-08-06T08:45:46;10.93;;;6.63;;
14139;SDS011;7150;53.514;9.988;2023-08-06T08:48:15;8.33;;;6.47;;
14139;SDS011;7150;53.514;9.988;2023-08-06T08:50:44;9.80;;;7.00;;
14139;SDS011;7150;53.514;9.988;2023-08-06T08:53:11;10.93;;;7.03;;
14139;SDS011;7150;53.514;9.988;2023-08-06T08:55:38;12.23;;;7.10;;
14139;SDS011;7150;53.514;9.988;2023-08-06T08:58:05;10.67;;;6.93;;
14139;SDS011;7150;53.514;9.988;2023-08-06T09:00:31;12.23;;;6.10;;
14139;SDS011;7150;53.514;9.988;2023-08-06T09:02:57;9.83;;;6.13;;
14139;SDS011;7150;53.514;9.988;2023-08-06T09:05:24;9.70;;;6.23;;
14139;SDS011;7150;53.514;9.988;2023-08-06T09:07:53;8.60;;;6.00;;
14139;SDS011;7150;53.514;9.988;2023-08-06T09:10:20;9.47;;;6.17;;
14139;SDS011;7150;53.514;9.988;2023-08-06T09:12:48;11.37;;;5.73;;
14139;SDS011;7150;53.514;9.988;2023-08-06T09:15:16;12.73;;;6.20;;
14139;SDS011;7150;53.514;9.988;2023-08-06T09:17:41;12.13;;;6.13;;
14139;SDS011;7150;53.514;9.988;2023-08-06T09:20:11;10.00;;;5.97;;
14139;SDS011;7150;53.514;9.988;2023-08-06T09:22:37;11.47;;;6.73;;
14139;SDS011;7150;53.514;9.988;2023-08-06T09:25:03;11.33;;;6.60;;
14139;SDS011;7150;53.514;9.988;2023-08-06T09:27:34;9.53;;;6.93;;
14139;SDS011;7150;53.514;9.988;2023-08-06T09:30:00;10.13;;;6.80;;
14139;SDS011;7150;53.514;9.988;2023-08-06T09:32:26;9.07;;;6.00;;
14139;SDS011;7150;53.514;9.988;2023-08-06T09:34:55;10.13;;;6.20;;
14139;SDS011;7150;53.514;9.988;2023-08-06T09:37:21;9.80;;;5.80;;
14139;SDS011;7150;53.514;9.988;2023-08-06T09:39:47;10.87;;;6.07;;
14139;SDS011;7150;53.514;9.988;2023-08-06T09:42:14;11.03;;;5.87;;
14139;SDS011;7150;53.514;9.988;2023-08-06T09:44:40;12.83;;;6.77;;
14139;SDS011;7150;53.514;9.988;2023-08-06T09:47:05;8.43;;;5.93;;
14139;SDS011;7150;53.514;9.988;2023-08-06T09:51:59;9.80;;;6.10;;
14139;SDS011;7150;53.514;9.988;2023-08-06T09:54:26;11.60;;;6.00;;
14139;SDS011;7150;53.514;9.988;2023-08-06T09:56:55;11.70;;;6.30;;
14139;SDS011;7150;53.514;9.988;2023-08-06T09:59:22;10.30;;;6.77;;
14139;SDS011;7150;53.514;9.988;2023-08-06T10:01:48;8.40;;;6.00;;
14139;SDS011;7150;53.514;9.988;2023-08-06T10:04:14;9.23;;;5.47;;
14139;SDS011;7150;53.514;9.988;2023-08-06T10:06:43;8.30;;;5.60;;
14139;SDS011;7150;53.514;9.988;2023-08-06T10:09:11;7.47;;;5.03;;
14139;SDS011;7150;53.514;9.988;2023-08-06T10:11:37;9.43;;;5.93;;
14139;SDS011;7150;53.514;9.988;2023-08-06T10:14:06;13.90;;;6.47;;
14139;SDS011;7150;53.514;9.988;2023-08-06T10:16:34;11.27;;;6.53;;
14139;SDS011;7150;53.514;9.988;2023-08-06T10:19:03;7.83;;;5.23;;
14139;SDS011;7150;53.514;9.988;2023-08-06T10:21:33;11.50;;;6.13;;
14139;SDS011;7150;53.514;9.988;2023-08-06T10:23:58;12.27;;;5.90;;
14139;SDS011;7150;53.514;9.988;2023-08-06T10:26:27;10.03;;;5.70;;
14139;SDS011;7150;53.514;9.988;2023-08-06T10:28:53;9.90;;;5.47;;
14139;SDS011;7150;53.514;9.988;2023-08-06T10:31:19;10.17;;;5.97;;
14139;SDS011;7150;53.514;9.988;2023-08-06T10:33:45;9.60;;;5.53;;
14139;SDS011;7150;53.514;9.988;2023-08-06T10:36:12;9.00;;;5.87;;
14139;SDS011;7150;53.514;9.988;2023-08-06T10:38:45;9.30;;;5.97;;
14139;SDS011;7150;53.514;9.988;2023-08-06T10:41:16;7.93;;;5.43;;
14139;SDS011;7150;53.514;9.988;2023-08-06T10:43:52;7.10;;;5.10;;
14139;SDS011;7150;53.514;9.988;2023-08-06T10:46:29;10.37;;;5.70;;
14139;SDS011;7150;53.514;9.988;2023-08-06T10:48:55;8.27;;;5.00;;
14139;SDS011;7150;53.514;9.988;2023-08-06T10:51:21;11.40;;;5.67;;
14139;SDS011;7150;53.514;9.988;2023-08-06T10:53:47;9.17;;;5.47;;
14139;SDS011;7150;53.514;9.988;2023-08-06T10:56:14;6.10;;;5.03;;
14139;SDS011;7150;53.514;9.988;2023-08-06T10:58:44;8.17;;;5.47;;
14139;SDS011;7150;53.514;9.988;2023-08-06T11:01:11;7.47;;;5.43;;
14139;SDS011;7150;53.514;9.988;2023-08-06T11:03:37;7.90;;;5.63;;
14139;SDS011;7150;53.514;9.988;2023-08-06T11:06:04;8.43;;;5.90;;
14139;SDS011;7150;53.514;9.988;2023-08-06T11:08:33;7.60;;;5.47;;
14139;SDS011;7150;53.514;9.988;2023-08-06T11:11:10;6.53;;;5.30;;
14139;SDS011;7150;53.514;9.988;2023-08-06T11:13:38;9.70;;;5.57;;
14139;SDS011;7150;53.514;9.988;2023-08-06T11:16:04;7.20;;;5.50;;
14139;SDS011;7150;53.514;9.988;2023-08-06T11:18:31;6.90;;;5.00;;
14139;SDS011;7150;53.514;9.988;2023-08-06T11:20:58;7.67;;;5.83;;
14139;SDS011;7150;53.514;9.988;2023-08-06T11:23:26;8.27;;;5.30;;
14139;SDS011;7150;53.514;9.988;2023-08-06T11:25:53;7.83;;;5.57;;
14139;SDS011;7150;53.514;9.988;2023-08-06T11:28:19;8.63;;;5.33;;
14139;SDS011;7150;53.514;9.988;2023-08-06T11:30:46;6.30;;;5.23;;
14139;SDS011;7150;53.514;9.988;2023-08-06T11:33:12;8.90;;;5.53;;
14139;SDS011;7150;53.514;9.988;2023-08-06T11:35:37;8.00;;;5.50;;
14139;SDS011;7150;53.514;9.988;2023-08-06T11:38:04;8.73;;;5.53;;
14139;SDS011;7150;53.514;9.988;2023-08-06T11:40:31;7.90;;;5.60;;
14139;SDS011;7150;53.514;9.988;2023-08-06T11:42:57;7.07;;;5.57;;
14139;SDS011;7150;53.514;9.988;2023-08-06T11:45:25;7.13;;;5.63;;
14139;SDS011;7150;53.514;9.988;2023-08-06T11:47:51;8.47;;;5.47;;
14139;SDS011;7150;53.514;9.988;2023-08-06T11:50:27;6.67;;;4.93;;
14139;SDS011;7150;53.514;9.988;2023-08-06T11:52:54;8.07;;;5.57;;
14139;SDS011;7150;53.514;9.988;2023-08-06T11:55:23;6.53;;;4.93;;
14139;SDS011;7150;53.514;9.988;2023-08-06T11:57:49;6.40;;;5.47;;
14139;SDS011;7150;53.514;9.988;2023-08-06T12:00:15;8.73;;;5.60;;
14139;SDS011;7150;53.514;9.988;2023-08-06T12:02:43;8.13;;;5.30;;
14139;SDS011;7150;53.514;9.988;2023-08-06T12:05:11;9.30;;;5.53;;
14139;SDS011;7150;53.514;9.988;2023-08-06T12:07:38;7.63;;;5.80;;
14139;SDS011;7150;53.514;9.988;2023-08-06T12:10:06;7.57;;;5.67;;
14139;SDS011;7150;53.514;9.988;2023-08-06T12:12:32;7.57;;;5.20;;
14139;SDS011;7150;53.514;9.988;2023-08-06T12:14:58;7.93;;;5.73;;
14139;SDS011;7150;53.514;9.988;2023-08-06T12:17:24;7.83;;;5.53;;
14139;SDS011;7150;53.514;9.988;2023-08-06T12:19:49;8.63;;;5.57;;
14139;SDS011;7150;53.514;9.988;2023-08-06T12:22:15;7.97;;;5.07;;
14139;SDS011;7150;53.514;9.988;2023-08-06T12:24:42;6.40;;;5.30;;
14139;SDS011;7150;53.514;9.988;2023-08-06T12:27:08;8.07;;;5.87;;
14139;SDS011;7150;53.514;9.988;2023-08-06T12:29:34;7.13;;;5.27;;
14139;SDS011;7150;53.514;9.988;2023-08-06T12:31:59;6.53;;;5.20;;
14139;SDS011;7150;53.514;9.988;2023-08-06T12:34:25;6.33;;;5.40;;
14139;SDS011;7150;53.514;9.988;2023-08-06T12:36:50;6.77;;;5.03;;
14139;SDS011;7150;53.514;9.988;2023-08-06T12:39:16;7.13;;;4.80;;
14139;SDS011;7150;53.514;9.988;2023-08-06T12:41:41;7.87;;;4.97;;
14139;SDS011;7150;53.514;9.988;2023-08-06T12:44:08;5.73;;;5.13;;
14139;SDS011;7150;53.514;9.988;2023-08-06T12:46:34;7.57;;;5.10;;
14139;SDS011;7150;53.514;9.988;2023-08-06T12:48:59;6.47;;;5.10;;
14139;SDS011;7150;53.514;9.988;2023-08-06T12:51:25;7.27;;;5.33;;
14139;SDS011;7150;53.514;9.988;2023-08-06T12:53:50;5.87;;;4.73;;
14139;SDS011;7150;53.514;9.988;2023-08-06T12:56:16;7.33;;;5.20;;
14139;SDS011;7150;53.514;9.988;2023-08-06T12:58:41;6.43;;;4.87;;
14139;SDS011;7150;53.514;9.988;2023-08-06T13:01:07;8.37;;;4.90;;
14139;SDS011;7150;53.514;9.988;2023-08-06T13:03:33;5.33;;;4.83;;
14139;SDS011;7150;53.514;9.988;2023-08-06T13:05:58;7.10;;;4.73;;
14139;SDS011;7150;53.514;9.988;2023-08-06T13:08:24;5.93;;;4.70;;
14139;SDS011;7150;53.514;9.988;2023-08-06T13:10:49;7.00;;;4.80;;
14139;SDS011;7150;53.514;9.988;2023-08-06T13:13:15;8.17;;;5.27;;
14139;SDS011;7150;53.514;9.988;2023-08-06T13:15:40;7.03;;;5.40;;
14139;SDS011;7150;53.514;9.988;2023-08-06T13:18:06;7.37;;;6.00;;
14139;SDS011;7150;53.514;9.988;2023-08-06T13:20:31;6.87;;;5.30;;
14139;SDS011;7150;53.514;9.988;2023-08-06T13:22:58;7.13;;;5.10;;
14139;SDS011;7150;53.514;9.988;2023-08-06T13:25:25;7.63;;;5.60;;
14139;SDS011;7150;53.514;9.988;2023-08-06T13:27:53;8.00;;;4.93;;
14139;SDS011;7150;53.514;9.988;2023-08-06T13:30:19;7.80;;;4.50;;
14139;SDS011;7150;53.514;9.988;2023-08-06T13:32:45;7.27;;;4.50;;
14139;SDS011;7150;53.514;9.988;2023-08-06T13:35:11;6.73;;;4.90;;
14139;SDS011;7150;53.514;9.988;2023-08-06T13:37:36;6.63;;;5.30;;
14139;SDS011;7150;53.514;9.988;2023-08-06T13:40:02;6.23;;;4.97;;
14139;SDS011;7150;53.514;9.988;2023-08-06T13:42:27;8.67;;;4.80;;
14139;SDS011;7150;53.514;9.988;2023-08-06T13:44:53;5.97;;;5.10;;
14139;SDS011;7150;53.514;9.988;2023-08-06T13:47:24;9.20;;;6.30;;
14139;SDS011;7150;53.514;9.988;2023-08-06T13:49:49;12.70;;;6.00;;
14139;SDS011;7150;53.514;9.988;2023-08-06T13:52:15;8.27;;;5.50;;
14139;SDS011;7150;53.514;9.988;2023-08-06T13:54:41;9.07;;;5.40;;
14139;SDS011;7150;53.514;9.988;2023-08-06T13:57:06;6.63;;;5.30;;
14139;SDS011;7150;53.514;9.988;2023-08-06T13:59:32;6.87;;;4.87;;
14139;SDS011;7150;53.514;9.988;2023-08-06T14:01:57;10.13;;;5.60;;
14139;SDS011;7150;53.514;9.988;2023-08-06T14:04:24;10.60;;;5.80;;
14139;SDS011;7150;53.514;9.988;2023-08-06T14:06:50;7.47;;;4.97;;
14139;SDS011;7150;53.514;9.988;2023-08-06T14:09:16;6.43;;;4.43;;
14139;SDS011;7150;53.514;9.988;2023-08-06T14:11:43;6.77;;;3.83;;
14139;SDS011;7150;53.514;9.988;2023-08-06T14:14:09;8.87;;;4.67;;
14139;SDS011;7150;53.514;9.988;2023-08-06T14:16:35;7.97;;;4.63;;
14139;SDS011;7150;53.514;9.988;2023-08-06T14:19:01;7.97;;;4.70;;
14139;SDS011;7150;53.514;9.988;2023-08-06T14:21:26;6.30;;;4.47;;
14139;SDS011;7150;53.514;9.988;2023-08-06T14:23:52;7.90;;;3.83;;
14139;SDS011;7150;53.514;9.988;2023-08-06T14:26:17;7.70;;;4.30;;
14139;SDS011;7150;53.514;9.988;2023-08-06T14:28:43;6.03;;;3.93;;
14139;SDS011;7150;53.514;9.988;2023-08-06T14:31:08;5.67;;;4.37;;
14139;SDS011;7150;53.514;9.988;2023-08-06T14:33:34;6.07;;;4.07;;
14139;SDS011;7150;53.514;9.988;2023-08-06T14:35:59;4.77;;;3.60;;
14139;SDS011;7150;53.514;9.988;2023-08-06T14:38:25;5.37;;;3.60;;
14139;SDS011;7150;53.514;9.988;2023-08-06T14:40:50;6.40;;;4.20;;
14139;SDS011;7150;53.514;9.988;2023-08-06T14:43:16;5.13;;;3.30;;
14139;SDS011;7150;53.514;9.988;2023-08-06T14:45:41;7.07;;;3.93;;
14139;SDS011;7150;53.514;9.988;2023-08-06T14:48:07;7.47;;;3.23;;
14139;SDS011;7150;53.514;9.988;2023-08-06T14:50:33;3.83;;;2.87;;
14139;SDS011;7150;53.514;9.988;2023-08-06T14:52:58;5.83;;;3.30;;
14139;SDS011;7150;53.514;9.988;2023-08-06T14:55:27;3.53;;;2.80;;
14139;SDS011;7150;53.514;9.988;2023-08-06T14:57:53;4.80;;;2.90;;